CheckWX is a tool to help pilots better visualize weather data.  It is not intended as a substitute for an official pre-flight weather briefing.

04:59:01 UTC

WPDL TAF
Presidente Nicolau Lobato International Airport
Dili
TAF WPDL 222300Z 2300/2312 30010KT 9999 SCT030 FM231100 16006KT 9999 SCT025

Mar-23@
00:00 UTC

Mar-23 @ 00:00 UTC

Mar-23@
11:00 UTC

Mar-23 @ 11:00 UTC

TAF WPDL 222300Z 2300/2312 30010KT 9999 SCT030
Wind
  • 300° at 10 KTS
Cloud Levels
  • Scattered at 3,000' AGL

Mar-23@
11:00 UTC

Mar-23 @ 11:00 UTC

Mar-23@
12:00 UTC

Mar-23 @ 12:00 UTC

FM231100 16006KT 9999 SCT025

From

From Standard forecast or significant change

Wind
  • 160° at 6 KTS
Cloud Levels
  • Scattered at 2,500' AGL